Time;durP1;ratioP1;P1;durP2;ratioP2;P2;SDS_P1;SDS_P2;PMS_P1;PMS_P2;Temp;Humidity;BMP_temperature;BMP_pressure;BME280_temperature;BME280_humidity;BME280_pressure;Samples;Min_cycle;Max_cycle;Signal;HPM_P1;HPM_P2
2021/04/01 00:00:10;;;;;;;5.10;4.63;;;21.50;32.40;;;;;;5050961;28;20431;-41
2021/04/01 00:02:36;;;;;;;11.70;4.77;;;21.50;32.50;;;;;;5039881;28;20193;-40
2021/04/01 00:05:02;;;;;;;4.60;4.20;;;21.60;32.30;;;;;;5046973;28;20504;-40
2021/04/01 00:07:28;;;;;;;7.90;3.80;;;21.50;32.20;;;;;;5047003;28;20814;-40
2021/04/01 00:09:54;;;;;;;5.83;4.57;;;21.50;32.30;;;;;;5046421;28;20530;-40
2021/04/01 00:12:19;;;;;;;8.63;4.40;;;21.50;32.20;;;;;;5039533;28;21011;-40
2021/04/01 00:14:45;;;;;;;5.37;4.53;;;21.50;32.50;;;;;;5049265;28;20199;-41
2021/04/01 00:17:11;;;;;;;5.70;4.20;;;21.50;32.70;;;;;;5046129;28;20185;-40
2021/04/01 00:19:37;;;;;;;7.13;4.63;;;21.40;32.70;;;;;;5039993;28;20271;-41
2021/04/01 00:22:03;;;;;;;5.50;4.10;;;21.40;32.80;;;;;;5044477;28;20508;-40
2021/04/01 00:24:29;;;;;;;5.30;4.77;;;21.10;33.10;;;;;;5036994;28;21027;-40
2021/04/01 00:26:55;;;;;;;5.13;4.40;;;21.00;33.50;;;;;;5036779;28;20436;-40
2021/04/01 00:29:20;;;;;;;6.17;4.43;;;20.90;33.60;;;;;;5045066;28;20657;-40
2021/04/01 00:31:46;;;;;;;7.47;4.70;;;20.70;33.80;;;;;;5041050;28;20196;-40
2021/04/01 00:34:12;;;;;;;6.57;4.13;;;20.80;33.90;;;;;;5047791;28;20190;-40
2021/04/01 00:36:37;;;;;;;6.90;4.63;;;20.90;34.00;;;;;;5036021;28;20181;-40
2021/04/01 00:39:03;;;;;;;7.77;4.63;;;21.00;33.60;;;;;;5044268;28;20193;-40
2021/04/01 00:41:29;;;;;;;6.00;4.47;;;20.90;33.10;;;;;;5043722;28;20661;-41
2021/04/01 00:43:54;;;;;;;6.53;4.40;;;21.00;33.30;;;;;;5047901;28;20353;-41
2021/04/01 00:46:20;;;;;;;4.53;3.67;;;20.90;33.20;;;;;;5044108;28;20217;-40
2021/04/01 00:48:45;;;;;;;5.30;3.93;;;20.90;33.50;;;;;;5039701;28;20185;-40
2021/04/01 00:51:11;;;;;;;4.33;3.93;;;20.70;33.40;;;;;;5041729;28;20203;-40
2021/04/01 00:53:37;;;;;;;3.83;3.43;;;20.70;33.80;;;;;;5050865;28;20982;-40
2021/04/01 00:56:02;;;;;;;4.47;3.80;;;20.50;33.70;;;;;;5046886;28;20203;-40
2021/04/01 00:58:29;;;;;;;5.20;3.90;;;20.40;33.90;;;;;;5050308;28;20204;-43
2021/04/01 01:03:41;;;;;;;5.70;4.23;;;20.10;34.60;;;;;;5027268;28;20440;-40
2021/04/01 01:06:06;;;;;;;4.57;3.87;;;19.90;34.90;;;;;;5037396;28;20483;-40
2021/04/01 01:08:32;;;;;;;4.10;3.70;;;19.90;35.00;;;;;;5047757;28;20704;-40
2021/04/01 01:10:57;;;;;;;9.13;5.27;;;20.00;35.10;;;;;;5043377;28;20196;-40
2021/04/01 01:13:23;;;;;;;4.10;3.37;;;20.00;35.00;;;;;;5048858;28;20263;-40
2021/04/01 01:15:49;;;;;;;3.93;3.33;;;19.70;35.10;;;;;;5033204;28;20189;-40
2021/04/01 01:18:14;;;;;;;6.80;3.93;;;19.60;35.60;;;;;;5047422;28;20199;-40
2021/04/01 01:20:41;;;;;;;6.23;4.03;;;19.60;35.30;;;;;;5041741;28;20238;-40
2021/04/01 01:23:07;;;;;;;4.43;3.90;;;19.60;35.60;;;;;;5041895;28;20427;-40
2021/04/01 01:25:33;;;;;;;4.90;3.90;;;19.70;35.30;;;;;;5038635;28;20229;-40
2021/04/01 01:27:59;;;;;;;7.53;4.43;;;19.60;35.30;;;;;;5047884;28;20493;-40
2021/04/01 01:30:25;;;;;;;5.63;4.07;;;19.70;35.40;;;;;;5042535;28;20530;-40
2021/04/01 01:32:59;;;;;;;4.33;3.70;;;19.70;35.40;;;;;;5041218;28;20982;-40
2021/04/01 01:35:27;;;;;;;6.13;4.33;;;19.60;35.30;;;;;;5049132;28;20449;-40
2021/04/01 01:37:58;;;;;;;4.87;3.80;;;19.60;35.70;;;;;;5044765;28;20865;-40
2021/04/01 01:40:28;;;;;;;4.90;4.27;;;19.70;35.70;;;;;;5048856;28;20937;-40
2021/04/01 01:42:56;;;;;;;4.93;3.50;;;19.40;35.60;;;;;;5035413;28;20464;-40
2021/04/01 01:45:23;;;;;;;4.57;4.13;;;19.40;35.60;;;;;;5045949;28;20489;-40
2021/04/01 01:47:50;;;;;;;6.23;3.77;;;19.50;35.80;;;;;;5033739;28;20477;-40
2021/04/01 01:50:18;;;;;;;6.20;4.07;;;19.30;36.00;;;;;;5038503;28;20788;-40
2021/04/01 01:52:44;;;;;;;6.70;3.90;;;19.20;36.30;;;;;;5045926;28;20430;-40
2021/04/01 01:55:11;;;;;;;6.10;4.43;;;19.40;36.40;;;;;;5045063;28;20788;-40
2021/04/01 01:57:38;;;;;;;3.80;3.43;;;19.50;36.00;;;;;;5035398;28;20754;-40
2021/04/01 02:00:11;;;;;;;5.40;4.60;;;19.60;35.80;;;;;;5044689;28;21222;-40
2021/04/01 02:02:37;;;;;;;4.10;3.70;;;19.60;35.70;;;;;;5036236;28;20452;-40
2021/04/01 02:05:07;;;;;;;8.00;4.23;;;19.50;35.80;;;;;;5043825;28;20478;-40
2021/04/01 02:07:33;;;;;;;8.50;3.63;;;19.20;35.80;;;;;;5036989;28;20503;-40
2021/04/01 02:09:59;;;;;;;4.47;4.07;;;18.90;36.10;;;;;;5032245;28;20447;-40
2021/04/01 02:12:25;;;;;;;6.30;4.23;;;18.80;36.70;;;;;;5034405;28;20944;-40
2021/04/01 02:14:50;;;;;;;5.07;3.90;;;18.70;37.20;;;;;;5044010;28;20436;-40
2021/04/01 02:17:20;;;;;;;4.83;4.27;;;18.70;37.00;;;;;;5031184;28;20193;-40
2021/04/01 02:19:46;;;;;;;6.60;5.00;;;18.70;37.00;;;;;;5046406;28;20661;-40
2021/04/01 02:22:12;;;;;;;4.90;3.70;;;18.60;37.10;;;;;;5046525;28;20473;-40
2021/04/01 02:24:37;;;;;;;5.60;3.80;;;18.70;37.40;;;;;;5047795;28;20204;-40
2021/04/01 02:27:03;;;;;;;4.70;3.47;;;18.70;37.20;;;;;;5039475;28;20200;-40
2021/04/01 02:29:29;;;;;;;4.13;3.73;;;18.90;37.00;;;;;;5038693;28;20850;-40
2021/04/01 02:31:54;;;;;;;5.43;3.97;;;18.70;37.20;;;;;;5047323;28;20192;-40
2021/04/01 02:34:20;;;;;;;5.83;3.63;;;18.50;36.90;;;;;;5049760;28;20632;-40
2021/04/01 02:36:50;;;;;;;3.90;3.40;;;18.30;37.50;;;;;;5048592;28;20192;-40
2021/04/01 02:39:15;;;;;;;4.73;4.00;;;18.50;37.80;;;;;;5043798;28;20203;-40
2021/04/01 02:41:41;;;;;;;4.87;3.70;;;18.60;37.30;;;;;;5037706;28;20450;-40
2021/04/01 02:44:06;;;;;;;4.80;3.53;;;18.70;37.30;;;;;;5043010;28;20207;-40
2021/04/01 02:46:32;;;;;;;7.47;4.03;;;18.90;37.50;;;;;;5042067;28;20247;-40
2021/04/01 02:48:58;;;;;;;5.47;4.23;;;19.00;36.80;;;;;;5041184;28;20619;-40
2021/04/01 02:51:23;;;;;;;4.17;3.77;;;19.10;36.50;;;;;;5049621;28;20218;-40
2021/04/01 02:53:49;;;;;;;5.60;3.80;;;19.10;36.10;;;;;;5035660;28;20729;-40
2021/04/01 02:56:14;;;;;;;6.63;3.50;;;18.90;36.60;;;;;;5044422;28;20189;-40
2021/04/01 02:58:40;;;;;;;10.57;4.37;;;18.90;37.10;;;;;;5037121;28;20192;-40
2021/04/01 03:01:08;;;;;;;4.13;3.73;;;18.80;36.80;;;;;;5042446;28;20197;-40
2021/04/01 03:03:38;;;;;;;5.30;4.03;;;18.90;37.00;;;;;;5049156;28;20192;-40
2021/04/01 03:06:04;;;;;;;6.00;4.10;;;18.90;36.80;;;;;;5047521;28;20492;-40
2021/04/01 03:08:30;;;;;;;6.53;3.73;;;18.50;36.90;;;;;;5040489;28;20479;-40
2021/04/01 03:10:56;;;;;;;10.93;3.43;;;18.50;37.60;;;;;;5040532;28;21384;-40
2021/04/01 03:13:21;;;;;;;6.03;4.07;;;18.50;37.30;;;;;;5043488;28;20201;-40
2021/04/01 03:15:51;;;;;;;8.03;3.90;;;18.50;37.30;;;;;;5038753;28;20197;-40
2021/04/01 03:18:18;;;;;;;4.43;3.60;;;18.50;37.80;;;;;;5044003;28;20197;-40
2021/04/01 03:20:44;;;;;;;6.57;3.90;;;18.70;37.80;;;;;;5046186;28;20436;-40
2021/04/01 03:23:10;;;;;;;8.00;4.23;;;18.80;37.40;;;;;;5039680;28;20480;-40
2021/04/01 03:25:36;;;;;;;7.50;4.90;;;18.90;37.20;;;;;;5045482;28;20954;-40
2021/04/01 03:28:02;;;;;;;4.87;4.00;;;19.00;36.90;;;;;;5044681;28;20226;-40
2021/04/01 03:30:28;;;;;;;5.60;4.23;;;19.20;36.50;;;;;;5043059;28;20197;-40
2021/04/01 03:32:53;;;;;;;4.93;4.23;;;19.20;36.30;;;;;;5049979;28;20434;-40
2021/04/01 03:35:22;;;;;;;7.50;4.60;;;19.20;36.10;;;;;;5042424;28;20201;-41
2021/04/01 03:38:03;;;;;;;6.50;4.50;;;19.00;36.40;;;;;;5047299;28;20227;-41
2021/04/01 03:40:29;;;;;;;5.13;3.90;;;18.80;36.00;;;;;;5044139;28;20444;-41
2021/04/01 03:42:55;;;;;;;4.40;3.93;;;18.30;36.70;;;;;;5048986;28;20847;-42
2021/04/01 03:45:21;;;;;;;6.30;4.80;;;17.90;37.40;;;;;;5068138;28;20217;-41
2021/04/01 03:47:46;;;;;;;8.10;4.73;;;17.50;38.20;;;;;;5042129;28;20490;-40
2021/04/01 03:50:14;;;;;;;7.70;4.47;;;17.40;38.40;;;;;;5045568;28;20200;-40
2021/04/01 03:52:40;;;;;;;6.10;4.57;;;16.90;39.20;;;;;;5046460;28;20270;-40
2021/04/01 03:55:27;;;;;;;6.40;4.77;;;16.50;40.00;;;;;;5040981;28;20461;-41
2021/04/01 03:57:58;;;;;;;4.73;4.23;;;16.40;40.30;;;;;;5044740;28;20534;-40
2021/04/01 04:00:30;;;;;;;5.03;4.53;;;16.20;40.60;;;;;;5037977;28;20494;-40
2021/04/01 04:03:09;;;;;;;4.67;4.20;;;16.00;41.00;;;;;;5044410;28;20435;-41
2021/04/01 04:08:36;;;;;;;4.60;3.90;;;15.80;41.50;;;;;;5049707;28;20474;-40
2021/04/01 04:13:49;;;;;;;6.87;4.50;;;15.90;41.40;;;;;;5041775;28;20525;-40
2021/04/01 04:16:15;;;;;;;4.80;4.00;;;15.90;41.10;;;;;;5047575;28;20438;-40
2021/04/01 04:18:40;;;;;;;5.80;4.30;;;15.50;41.80;;;;;;5042858;28;20954;-40
2021/04/01 04:21:06;;;;;;;5.70;4.53;;;15.30;42.50;;;;;;5043948;28;20424;-40
2021/04/01 04:23:33;;;;;;;5.10;3.93;;;15.30;42.40;;;;;;5040586;28;20190;-40
2021/04/01 04:25:58;;;;;;;4.60;4.20;;;15.10;42.80;;;;;;5050898;28;20283;-40
2021/04/01 04:28:34;;;;;;;5.70;3.90;;;14.90;43.30;;;;;;5037064;28;20440;-41
2021/04/01 04:31:01;;;;;;;4.33;4.00;;;14.90;43.50;;;;;;5050721;28;20636;-40
2021/04/01 04:33:27;;;;;;;6.37;4.53;;;14.90;43.60;;;;;;5034433;28;20500;-41
2021/04/01 04:35:53;;;;;;;5.47;4.10;;;14.90;43.60;;;;;;5041581;28;20446;-40
2021/04/01 04:38:18;;;;;;;6.53;4.30;;;14.90;43.60;;;;;;5040418;28;20435;-42
2021/04/01 04:40:44;;;;;;;8.63;4.20;;;14.80;43.70;;;;;;5044422;28;20675;-40
2021/04/01 04:43:10;;;;;;;5.50;3.87;;;14.90;43.80;;;;;;5046025;28;20709;-40
2021/04/01 04:45:36;;;;;;;6.77;4.87;;;15.00;43.60;;;;;;5045670;28;20474;-40
2021/04/01 04:48:02;;;;;;;6.90;5.30;;;14.60;44.10;;;;;;5037390;28;20197;-40
2021/04/01 04:50:27;;;;;;;10.87;5.37;;;14.50;44.60;;;;;;5046400;28;20196;-40
2021/04/01 04:52:53;;;;;;;7.40;5.07;;;14.20;45.20;;;;;;5049116;28;20195;-40
2021/04/01 04:55:19;;;;;;;7.50;5.07;;;14.30;45.20;;;;;;5036825;28;20600;-40
2021/04/01 05:05:45;;;;;;;6.03;4.10;;;14.10;45.40;;;;;;5044479;28;20538;-40
2021/04/01 05:08:11;;;;;;;6.57;4.40;;;13.90;46.00;;;;;;5043651;28;20502;-40
2021/04/01 05:10:36;;;;;;;6.73;4.47;;;13.70;46.30;;;;;;5049186;28;20258;-40
2021/04/01 05:15:30;;;;;;;6.97;4.37;;;13.80;46.50;;;;;;5040286;28;20668;-41
2021/04/01 05:18:09;;;;;;;5.13;4.47;;;13.80;46.50;;;;;;5047599;28;20542;-40
2021/04/01 05:20:34;;;;;;;5.30;2.80;;;13.50;47.10;;;;;;5043935;28;20199;-39
2021/04/01 05:23:06;;;;;;;4.80;3.40;;;13.50;52.20;;;;;;5038009;28;20431;-40
2021/04/01 05:25:32;;;;;;;4.83;4.30;;;14.10;50.00;;;;;;5050583;28;20585;-40
2021/04/01 05:28:05;;;;;;;6.20;4.20;;;14.90;46.80;;;;;;5048986;28;20487;-39
2021/04/01 05:30:30;;;;;;;4.57;3.80;;;15.60;44.60;;;;;;5049176;28;20287;-40
2021/04/01 05:32:56;;;;;;;6.87;4.53;;;16.10;42.90;;;;;;5047049;28;20514;-40
2021/04/01 05:35:22;;;;;;;5.13;4.00;;;16.50;41.90;;;;;;5046291;28;20241;-40
2021/04/01 05:37:48;;;;;;;6.40;4.73;;;16.80;41.10;;;;;;5043277;28;20184;-40
2021/04/01 05:40:15;;;;;;;5.20;4.70;;;17.20;40.40;;;;;;5047211;28;20452;-40
2021/04/01 05:42:46;;;;;;;5.57;4.20;;;17.40;39.70;;;;;;5040935;28;20759;-40
2021/04/01 05:50:42;;;;;;;6.70;4.70;;;17.60;38.90;;;;;;5044133;28;20924;-40
2021/04/01 06:03:39;;;;;;;6.03;4.67;;;17.90;38.30;;;;;;5044264;28;20431;-40
2021/04/01 06:06:12;;;;;;;7.27;4.57;;;17.90;38.50;;;;;;5038285;28;20491;-40
2021/04/01 06:08:47;;;;;;;5.17;4.70;;;17.90;38.70;;;;;;5041733;28;20471;-40
2021/04/01 06:11:13;;;;;;;9.00;4.80;;;18.00;38.40;;;;;;5043850;28;20431;-40
2021/04/01 06:13:55;;;;;;;6.20;4.93;;;17.80;38.70;;;;;;5045187;28;20495;-40
2021/04/01 06:16:23;;;;;;;14.77;5.60;;;17.40;39.60;;;;;;5039069;28;20500;-40
2021/04/01 06:18:54;;;;;;;7.10;5.17;;;17.30;40.00;;;;;;5041901;28;20452;-40
2021/04/01 06:21:24;;;;;;;7.03;4.47;;;17.30;40.10;;;;;;5043982;28;20442;-40
2021/04/01 06:24:03;;;;;;;9.47;4.80;;;17.40;39.80;;;;;;5047058;28;20439;-40
2021/04/01 06:26:32;;;;;;;8.30;5.07;;;17.50;39.70;;;;;;5046784;28;20509;-40
2021/04/01 06:29:02;;;;;;;6.47;4.80;;;17.40;40.10;;;;;;5035570;28;20501;-40
2021/04/01 06:31:39;;;;;;;9.10;4.10;;;17.70;39.90;;;;;;5039194;28;20447;-40
2021/04/01 06:34:06;;;;;;;6.30;4.60;;;17.50;40.00;;;;;;5031883;28;20443;-39
2021/04/01 06:36:35;;;;;;;7.87;4.80;;;17.80;39.80;;;;;;5031140;28;20805;-40
2021/04/01 06:39:00;;;;;;;10.97;5.40;;;17.90;39.50;;;;;;5036620;28;20435;-40
2021/04/01 06:41:28;;;;;;;5.10;4.10;;;18.00;39.50;;;;;;5041984;28;20440;-40
2021/04/01 06:44:28;;;;;;;7.17;5.10;;;17.70;40.00;;;;;;5041400;28;20193;-40
2021/04/01 06:47:05;;;;;;;5.90;5.10;;;17.70;40.40;;;;;;5044154;28;20583;-40
2021/04/01 06:52:16;;;;;;;8.40;4.33;;;18.10;40.00;;;;;;5047180;28;20764;-41
2021/04/01 06:55:00;;;;;;;6.30;4.10;;;18.50;39.50;;;;;;5038587;28;20470;-41
2021/04/01 07:03:07;;;;;;;5.20;4.63;;;19.00;38.70;;;;;;5043661;28;20477;-41
2021/04/01 07:05:43;;;;;;;7.00;5.03;;;18.80;38.90;;;;;;5036196;28;20513;-40
2021/04/01 07:08:10;;;;;;;5.27;4.77;;;18.70;39.10;;;;;;5037439;28;20744;-40
2021/04/01 07:10:49;;;;;;;6.63;4.73;;;18.60;39.30;;;;;;5050016;28;20453;-40
2021/04/01 07:13:20;;;;;;;7.47;5.33;;;18.80;39.20;;;;;;5039651;28;20446;-45
2021/04/01 07:15:49;;;;;;;7.90;5.90;;;19.20;38.60;;;;;;5047239;28;20439;-40
2021/04/01 07:34:51;;;;;;;6.27;4.97;;;21.00;36.40;;;;;;5049177;28;20435;-41
2021/04/01 07:48:13;;;;;;;7.47;5.03;;;22.60;34.70;;;;;;5037350;28;20443;-41
2021/04/01 07:50:41;;;;;;;12.77;5.67;;;22.80;35.00;;;;;;5037064;28;20445;-41
2021/04/01 07:53:11;;;;;;;7.97;4.77;;;22.30;35.00;;;;;;5037208;28;20440;-41
2021/04/01 08:01:34;;;;;;;8.00;5.63;;;22.40;35.20;;;;;;5031303;28;20443;-41
2021/04/01 08:04:03;;;;;;;7.30;5.57;;;22.50;35.20;;;;;;5041201;28;20444;-41
2021/04/01 08:06:30;;;;;;;8.67;5.10;;;22.80;34.80;;;;;;5042569;28;20583;-42
2021/04/01 08:09:02;;;;;;;8.80;5.17;;;22.80;34.80;;;;;;5040776;28;20499;-41
2021/04/01 08:11:34;;;;;;;5.93;5.13;;;22.80;34.30;;;;;;5042763;28;20521;-41
2021/04/01 08:14:21;;;;;;;6.97;5.40;;;22.60;34.20;;;;;;5043513;28;20450;-41
2021/04/01 08:16:59;;;;;;;6.80;4.90;;;22.40;34.70;;;;;;5046573;28;20807;-41
2021/04/01 08:19:26;;;;;;;8.20;5.27;;;22.60;35.00;;;;;;5040217;28;20430;-41
2021/04/01 08:21:53;;;;;;;8.93;6.67;;;22.70;34.60;;;;;;5040740;28;20439;-41
2021/04/01 08:24:32;;;;;;;5.93;5.33;;;22.80;34.30;;;;;;5048294;28;20858;-42
2021/04/01 08:35:25;;;;;;;5.00;3.90;;;23.20;34.40;;;;;;5051348;28;20434;-41
2021/04/01 08:38:16;;;;;;;5.47;4.47;;;23.40;34.90;;;;;;5039262;28;20479;-42
2021/04/01 08:40:42;;;;;;;5.10;4.27;;;23.80;34.50;;;;;;5042394;28;20477;-42
2021/04/01 08:43:36;;;;;;;11.83;5.03;;;24.40;34.00;;;;;;5045476;28;20477;-42
2021/04/01 08:46:21;;;;;;;8.83;4.90;;;24.80;33.50;;;;;;5041946;28;20479;-43
2021/04/01 08:48:49;;;;;;;8.47;4.77;;;25.20;33.10;;;;;;5043393;28;20525;-42
2021/04/01 08:51:41;;;;;;;10.03;4.80;;;25.50;32.40;;;;;;5044933;28;20782;-41
2021/04/01 08:54:10;;;;;;;7.50;5.67;;;25.60;32.30;;;;;;5043482;28;20439;-42
2021/04/01 08:56:44;;;;;;;7.90;5.53;;;25.80;31.60;;;;;;5042429;28;20444;-41
2021/04/01 08:59:41;;;;;;;9.13;5.77;;;26.00;31.10;;;;;;5046443;28;20511;-42
2021/04/01 09:02:12;;;;;;;8.47;5.50;;;26.30;31.50;;;;;;5040158;28;20446;-42
2021/04/01 09:04:46;;;;;;;9.50;4.97;;;26.10;30.50;;;;;;5037039;28;20432;-45
2021/04/01 09:07:17;;;;;;;7.20;4.50;;;26.10;30.40;;;;;;5042324;28;20553;-43
2021/04/01 09:09:49;;;;;;;8.30;5.40;;;26.30;30.70;;;;;;5041778;28;20802;-43
2021/04/01 09:12:32;;;;;;;9.43;4.90;;;26.50;29.90;;;;;;5046230;28;20435;-42
2021/04/01 09:15:09;;;;;;;7.43;5.10;;;26.70;30.40;;;;;;5042851;28;20431;-42
2021/04/01 09:17:36;;;;;;;10.40;5.20;;;26.80;29.80;;;;;;5031591;28;20928;-44
2021/04/01 09:20:13;;;;;;;7.97;5.37;;;27.00;29.90;;;;;;5040370;28;20433;-43
2021/04/01 09:22:47;;;;;;;5.30;4.20;;;27.10;29.40;;;;;;5049853;28;20818;-43
2021/04/01 09:25:14;;;;;;;8.63;4.43;;;27.10;29.10;;;;;;5042799;28;20479;-42
2021/04/01 09:27:50;;;;;;;9.53;4.80;;;27.10;29.00;;;;;;5044638;28;20467;-42
2021/04/01 09:30:17;;;;;;;14.37;5.03;;;27.10;29.00;;;;;;5044284;28;20968;-44
2021/04/01 09:32:47;;;;;;;5.10;4.47;;;27.10;29.00;;;;;;5045410;28;20511;-44
2021/04/01 09:35:14;;;;;;;9.40;4.80;;;27.00;29.00;;;;;;5030905;28;20813;-42
2021/04/01 09:38:06;;;;;;;5.47;4.90;;;27.00;29.20;;;;;;5033467;28;20431;-42
2021/04/01 09:40:39;;;;;;;6.57;4.00;;;27.00;29.40;;;;;;5044292;28;20763;-44
2021/04/01 09:43:25;;;;;;;7.63;4.87;;;26.90;29.80;;;;;;5033065;28;20497;-42
2021/04/01 09:45:58;;;;;;;5.90;4.30;;;26.90;29.40;;;;;;5039345;28;20487;-44
2021/04/01 09:48:31;;;;;;;7.37;4.80;;;27.00;30.00;;;;;;5043435;28;20742;-42
2021/04/01 09:51:00;;;;;;;8.40;4.53;;;27.00;29.50;;;;;;5041260;28;20428;-44
2021/04/01 09:53:27;;;;;;;7.80;6.03;;;27.20;29.60;;;;;;5031773;28;20439;-42
2021/04/01 09:55:55;;;;;;;5.40;4.60;;;27.20;29.50;;;;;;5042490;28;20435;-43
2021/04/01 09:58:33;;;;;;;9.10;5.57;;;27.20;28.90;;;;;;5035548;28;20439;-44
2021/04/01 10:01:26;;;;;;;5.47;4.93;;;27.30;29.30;;;;;;5041062;28;20481;-45
2021/04/01 10:03:54;;;;;;;10.40;5.87;;;27.30;29.10;;;;;;5033517;28;20443;-45
2021/04/01 10:06:39;;;;;;;7.90;5.80;;;27.30;29.10;;;;;;5038691;28;20676;-45
2021/04/01 10:09:10;;;;;;;10.33;6.57;;;27.10;29.00;;;;;;5045751;28;20501;-44
2021/04/01 10:11:55;;;;;;;8.20;5.60;;;27.30;29.20;;;;;;5046300;28;20529;-44
2021/04/01 10:14:21;;;;;;;6.23;5.63;;;27.30;29.20;;;;;;5034628;28;20463;-44
2021/04/01 10:16:56;;;;;;;8.17;5.90;;;27.40;29.10;;;;;;5045251;28;20508;-43
2021/04/01 10:19:28;;;;;;;8.03;5.30;;;27.60;29.40;;;;;;5045613;28;20439;-45
2021/04/01 10:21:55;;;;;;;6.53;4.70;;;27.90;29.80;;;;;;5032804;28;20436;-45
2021/04/01 10:24:22;;;;;;;5.47;4.50;;;28.20;28.90;;;;;;5033182;28;20433;-45
2021/04/01 10:27:00;;;;;;;10.33;4.80;;;28.40;28.40;;;;;;5080210;28;20997;-45
2021/04/01 10:29:39;;;;;;;8.87;5.30;;;28.70;28.20;;;;;;5042268;28;20542;-45
2021/04/01 10:32:07;;;;;;;5.40;4.90;;;28.90;28.30;;;;;;5037502;28;20452;-44
2021/04/01 10:34:52;;;;;;;12.30;5.17;;;29.00;28.90;;;;;;5033622;28;20597;-44
2021/04/01 10:37:21;;;;;;;8.63;4.63;;;29.30;28.40;;;;;;5033545;28;20934;-42
2021/04/01 10:39:47;;;;;;;12.07;4.87;;;29.70;27.70;;;;;;5044432;28;20915;-44
2021/04/01 10:42:14;;;;;;;8.43;4.90;;;29.50;27.10;;;;;;5043130;28;20430;-42
2021/04/01 10:44:41;;;;;;;7.07;4.30;;;29.30;26.90;;;;;;5038365;28;20192;-44
2021/04/01 10:47:13;;;;;;;8.67;5.50;;;29.30;27.40;;;;;;5036273;28;20487;-43
2021/04/01 10:49:40;;;;;;;11.87;5.77;;;29.50;28.20;;;;;;5043018;28;20522;-45
2021/04/01 10:52:12;;;;;;;8.20;5.83;;;29.80;27.60;;;;;;5036609;28;20427;-46
2021/04/01 10:54:45;;;;;;;7.63;5.30;;;30.10;27.50;;;;;;5044803;28;20446;-43
2021/04/01 10:57:25;;;;;;;7.07;3.83;;;30.30;27.30;;;;;;5042839;28;20446;-44
2021/04/01 10:59:50;;;;;;;4.20;3.23;;;30.40;26.60;;;;;;5036495;28;20886;-43
2021/04/01 11:02:18;;;;;;;7.67;3.93;;;30.50;26.60;;;;;;5040574;28;20459;-46
2021/04/01 11:04:54;;;;;;;4.27;3.60;;;30.50;26.50;;;;;;5040644;28;20189;-44
2021/04/01 11:07:21;;;;;;;5.93;4.07;;;30.60;26.80;;;;;;5049417;28;20457;-43
2021/04/01 11:09:51;;;;;;;7.03;3.87;;;30.60;26.60;;;;;;5050118;28;20424;-46
2021/04/01 11:12:20;;;;;;;7.80;4.40;;;30.70;26.40;;;;;;5031673;28;20439;-43
2021/04/01 11:15:01;;;;;;;4.20;3.53;;;30.70;26.80;;;;;;5044687;28;20795;-44
2021/04/01 11:17:30;;;;;;;4.73;3.40;;;30.80;27.30;;;;;;5037865;28;20489;-47
2021/04/01 11:19:59;;;;;;;5.50;3.47;;;30.90;26.80;;;;;;5038821;28;20440;-42
2021/04/01 11:22:24;;;;;;;7.97;3.10;;;31.00;26.90;;;;;;5042887;28;21224;-44
2021/04/01 11:24:50;;;;;;;8.43;3.73;;;31.10;27.00;;;;;;5034786;28;20545;-45
2021/04/01 11:27:19;;;;;;;5.20;3.90;;;31.20;26.90;;;;;;5036044;28;20828;-45
2021/04/01 11:30:11;;;;;;;8.03;4.70;;;31.30;26.70;;;;;;5045684;28;20204;-43
2021/04/01 11:32:37;;;;;;;5.30;3.70;;;31.30;26.60;;;;;;5039881;28;21233;-46
2021/04/01 11:35:05;;;;;;;5.50;4.20;;;31.40;26.70;;;;;;5035763;28;20436;-46
2021/04/01 11:37:36;;;;;;;9.00;4.80;;;31.50;26.60;;;;;;5046816;28;20203;-45
2021/04/01 11:40:06;;;;;;;8.10;4.10;;;31.50;26.20;;;;;;5042130;28;20482;-46
2021/04/01 11:42:32;;;;;;;7.10;4.07;;;31.60;25.80;;;;;;5041849;28;20450;-43
2021/04/01 11:45:04;;;;;;;7.70;4.90;;;31.70;27.00;;;;;;5042699;28;20443;-46
2021/04/01 11:47:31;;;;;;;4.33;3.93;;;31.90;26.50;;;;;;5050525;28;20205;-46
2021/04/01 11:49:57;;;;;;;4.90;4.40;;;32.00;26.40;;;;;;5042195;28;20525;-45
2021/04/01 11:52:24;;;;;;;6.03;3.93;;;32.20;26.10;;;;;;5039827;28;20577;-44
2021/04/01 11:54:52;;;;;;;8.27;4.47;;;32.40;26.30;;;;;;5046102;28;20194;-44
2021/04/01 11:57:24;;;;;;;5.57;4.43;;;32.50;26.30;;;;;;5041718;28;20436;-44
2021/04/01 12:00:02;;;;;;;11.63;4.13;;;32.50;25.70;;;;;;5048336;28;20829;-47
2021/04/01 12:02:30;;;;;;;6.37;4.50;;;32.50;26.60;;;;;;5049780;28;20496;-43
2021/04/01 12:04:58;;;;;;;6.53;4.40;;;32.60;25.10;;;;;;5046443;28;20445;-47
2021/04/01 12:07:25;;;;;;;5.40;4.00;;;32.70;26.00;;;;;;5047113;28;20449;-45
2021/04/01 12:09:52;;;;;;;4.87;4.37;;;32.80;26.10;;;;;;5048773;28;20435;-45
2021/04/01 12:12:32;;;;;;;5.23;4.30;;;32.90;25.40;;;;;;5041670;28;20851;-44
2021/04/01 12:14:58;;;;;;;9.30;4.33;;;33.00;25.80;;;;;;5046066;28;20435;-46
2021/04/01 12:17:32;;;;;;;6.23;4.40;;;33.00;24.90;;;;;;5048891;28;20555;-42
2021/04/01 12:19:59;;;;;;;6.97;4.17;;;32.90;25.60;;;;;;5049528;28;20432;-44
2021/04/01 12:22:35;;;;;;;5.00;4.43;;;32.90;25.50;;;;;;5050050;28;20431;-46
2021/04/01 12:25:00;;;;;;;6.93;4.63;;;33.10;25.70;;;;;;5049102;28;20446;-43
2021/04/01 12:27:28;;;;;;;9.90;4.80;;;33.20;26.10;;;;;;5049682;28;20435;-46
2021/04/01 12:29:54;;;;;;;7.70;4.67;;;33.10;24.40;;;;;;5051786;28;20258;-44
2021/04/01 12:32:34;;;;;;;9.40;4.83;;;33.10;24.60;;;;;;5047846;28;20436;-46
2021/04/01 12:35:11;;;;;;;6.17;4.53;;;33.00;25.50;;;;;;5050945;28;20188;-47
2021/04/01 12:37:38;;;;;;;6.07;4.53;;;33.10;25.70;;;;;;5046408;28;20454;-46
2021/04/01 12:40:37;;;;;;;10.77;4.23;;;33.20;25.70;;;;;;5047927;28;20450;-43
2021/04/01 12:43:05;;;;;;;3.90;3.40;;;33.30;25.40;;;;;;5044596;28;20442;-44
2021/04/01 12:45:33;;;;;;;3.80;3.20;;;33.20;24.00;;;;;;5049151;28;20486;-45
2021/04/01 12:48:07;;;;;;;5.40;3.73;;;33.20;24.20;;;;;;5050566;28;20500;-46
2021/04/01 12:50:39;;;;;;;3.07;2.87;;;33.20;24.20;;;;;;5045886;28;20859;-44
2021/04/01 12:53:06;;;;;;;11.90;3.57;;;33.20;24.30;;;;;;5049615;28;20485;-45
2021/04/01 12:55:52;;;;;;;3.47;3.17;;;33.30;23.90;;;;;;5046700;28;20436;-44
2021/04/01 12:58:38;;;;;;;5.40;3.60;;;33.40;24.50;;;;;;5050410;28;20430;-42
2021/04/01 13:01:31;;;;;;;9.00;3.93;;;33.30;25.20;;;;;;5046313;28;20443;-43
2021/04/01 13:04:00;;;;;;;7.00;3.43;;;33.30;24.40;;;;;;5047188;28;20497;-42
2021/04/01 13:06:39;;;;;;;6.87;3.90;;;33.20;24.00;;;;;;5043683;28;20480;-43
2021/04/01 13:11:51;;;;;;;4.63;3.40;;;33.10;24.00;;;;;;5053461;28;20474;-42
2021/04/01 13:14:18;;;;;;;4.20;3.40;;;33.10;23.90;;;;;;5046743;28;20426;-42
2021/04/01 13:16:43;;;;;;;3.80;3.50;;;32.90;23.00;;;;;;5050133;28;20485;-43
2021/04/01 13:19:09;;;;;;;3.40;3.10;;;32.80;23.90;;;;;;5049494;28;21188;-43
2021/04/01 13:26:35;;;;;;;5.23;3.93;;;32.40;25.40;;;;;;5047619;28;20474;-42
2021/04/01 13:29:04;;;;;;;7.40;3.90;;;32.00;25.90;;;;;;5047854;28;20438;-44
2021/04/01 13:34:19;;;;;;;4.03;3.70;;;31.80;26.00;;;;;;5045056;28;21192;-42
2021/04/01 13:39:31;;;;;;;8.83;4.40;;;31.50;26.40;;;;;;5048969;28;20933;-44
2021/04/01 13:44:34;;;;;;;11.70;4.43;;;31.20;26.20;;;;;;5043941;28;20428;-43
2021/04/01 13:47:01;;;;;;;5.90;4.20;;;31.20;26.50;;;;;;5038039;28;20538;-46
2021/04/01 13:49:28;;;;;;;5.97;4.57;;;31.20;26.20;;;;;;5043184;28;20523;-44
2021/04/01 13:52:06;;;;;;;5.47;4.23;;;31.40;26.50;;;;;;5043008;28;20432;-43
2021/04/01 13:57:26;;;;;;;4.30;3.20;;;31.20;26.20;;;;;;5044114;28;20439;-43
2021/04/01 14:11:11;;;;;;;6.03;4.07;;;31.90;24.50;;;;;;5042815;28;20492;-42
2021/04/01 14:13:37;;;;;;;4.10;3.60;;;31.80;23.90;;;;;;5040946;28;20875;-44
2021/04/01 14:16:03;;;;;;;8.00;3.87;;;31.80;24.50;;;;;;5037108;28;20510;-42
2021/04/01 14:18:30;;;;;;;7.40;4.10;;;31.80;24.90;;;;;;5043555;28;20593;-43
2021/04/01 14:20:58;;;;;;;4.73;3.20;;;31.80;25.10;;;;;;5044896;28;20259;-44
2021/04/01 14:23:26;;;;;;;7.20;4.30;;;31.90;25.10;;;;;;5043367;28;20521;-43
2021/04/01 14:25:54;;;;;;;3.97;3.57;;;32.00;25.00;;;;;;5046355;28;20848;-44
2021/04/01 14:28:20;;;;;;;5.00;3.63;;;31.90;24.60;;;;;;5043706;28;20945;-42
2021/04/01 14:30:46;;;;;;;6.77;4.30;;;32.00;24.80;;;;;;5044170;28;20424;-42
2021/04/01 14:33:14;;;;;;;4.50;4.03;;;32.10;24.90;;;;;;5046325;28;20196;-43
2021/04/01 14:35:42;;;;;;;5.67;3.97;;;31.90;24.10;;;;;;5044697;28;20779;-42
2021/04/01 14:38:08;;;;;;;8.67;4.13;;;31.90;24.00;;;;;;5036983;28;21603;-43
2021/04/01 14:40:51;;;;;;;7.50;4.83;;;31.90;24.00;;;;;;5039749;28;20464;-44
2021/04/01 14:43:25;;;;;;;6.47;3.73;;;31.60;23.40;;;;;;5042939;28;20216;-44
2021/04/01 14:45:51;;;;;;;4.73;4.33;;;31.60;24.30;;;;;;5045263;28;20525;-42
2021/04/01 14:48:17;;;;;;;5.10;4.10;;;31.40;24.70;;;;;;5047665;28;20457;-42
2021/04/01 14:50:42;;;;;;;4.10;3.33;;;31.50;24.90;;;;;;5042451;28;20431;-45
2021/04/01 14:53:36;;;;;;;8.07;4.57;;;31.50;24.50;;;;;;5042582;28;20518;-46